Time;durP1;ratioP1;P1;durP2;ratioP2;P2;SDS_P1;SDS_P2;PMS_P1;PMS_P2;Temp;Humidity;BMP_temperature;BMP_pressure;BME280_temperature;BME280_humidity;BME280_pressure;Samples;Min_cycle;Max_cycle;Signal;HPM_P1;HPM_P2
2022/12/11 00:00:25;;;;;;;37.33;22.70;;;;;;;-0.21;71.42;100199.63;4166367;28;20102;-77
2022/12/11 00:02:28;;;;;;;35.65;24.00;;;;;;;-0.15;71.19;100193.97;4166428;28;20104;-77
2022/12/11 00:04:33;;;;;;;36.88;23.30;;;;;;;-0.11;70.91;100201.00;4165936;28;20428;-77
2022/12/11 00:06:35;;;;;;;35.22;23.25;;;;;;;-0.12;71.79;100208.59;4165116;28;20053;-77
2022/12/11 00:08:39;;;;;;;42.38;25.58;;;;;;;-0.15;71.59;100208.44;4166265;28;20045;-77
2022/12/11 00:10:47;;;;;;;37.25;23.95;;;;;;;-0.13;71.94;100200.06;4165010;28;20107;-77
2022/12/11 00:12:50;;;;;;;35.92;23.38;;;;;;;-0.12;71.94;100199.25;4166187;28;20037;-77
2022/12/11 00:14:53;;;;;;;34.35;23.17;;;;;;;-0.12;71.53;100199.25;4165911;28;20041;-76
2022/12/11 00:16:55;;;;;;;41.50;25.30;;;;;;;-0.07;71.82;100202.06;4165004;28;20107;-76
2022/12/11 00:18:58;;;;;;;37.63;24.63;;;;;;;-0.08;71.40;100202.84;4166148;28;20087;-77
2022/12/11 00:21:04;;;;;;;35.00;23.42;;;;;;;-0.09;71.78;100209.66;4166067;28;20403;-77
2022/12/11 00:23:07;;;;;;;35.85;24.50;;;;;;;-0.10;71.82;100200.22;4166026;28;20408;-77
2022/12/11 00:25:09;;;;;;;37.72;24.00;;;;;;;-0.11;72.22;100201.00;4165311;28;20488;-77
2022/12/11 00:27:13;;;;;;;34.78;22.17;;;;;;;-0.14;73.04;100205.09;4165924;28;20414;-77
2022/12/11 00:29:16;;;;;;;33.50;21.92;;;;;;;-0.18;73.18;100206.59;4165947;28;20064;-77
2022/12/11 00:31:19;;;;;;;34.97;22.23;;;;;;;-0.20;73.48;100206.50;4164587;28;20499;-76
2022/12/11 00:33:22;;;;;;;37.77;23.13;;;;;;;-0.17;72.82;100208.38;4165733;28;20041;-77
2022/12/11 00:35:25;;;;;;;46.75;27.98;;;;;;;-0.13;73.48;100206.84;4164605;28;20037;-77
2022/12/11 00:37:29;;;;;;;39.50;25.58;;;;;;;-0.06;73.20;100214.94;4165818;28;20077;-77
2022/12/11 00:39:32;;;;;;;42.38;24.70;;;;;;;-0.01;72.69;100210.91;4164582;28;20038;-77
2022/12/11 00:41:35;;;;;;;43.22;26.25;;;;;;;0.08;72.62;100209.66;4180942;28;20043;-77
2022/12/11 00:43:38;;;;;;;45.50;26.77;;;;;;;0.09;73.06;100203.72;4147667;28;20072;-76
2022/12/11 00:45:43;;;;;;;37.63;23.65;;;;;;;0.11;72.98;100202.13;4164621;28;20050;-77
2022/12/11 00:47:46;;;;;;;35.58;24.00;;;;;;;0.09;72.33;100199.50;4165728;28;20073;-77
2022/12/11 00:49:49;;;;;;;40.22;24.02;;;;;;;0.15;72.73;100209.19;4165621;28;20037;-77
2022/12/11 00:51:52;;;;;;;43.20;26.27;;;;;;;0.13;72.94;100204.00;4164402;28;20051;-76
2022/12/11 00:53:56;;;;;;;40.45;25.23;;;;;;;0.17;72.70;100194.78;4164055;28;20045;-77
2022/12/11 00:55:59;;;;;;;38.78;24.77;;;;;;;0.15;72.72;100197.25;4164277;28;20049;-77
2022/12/11 00:58:02;;;;;;;34.28;22.67;;;;;;;0.16;72.16;100198.13;4165518;28;20053;-77
2022/12/11 01:00:07;;;;;;;38.60;25.88;;;;;;;0.20;72.71;100196.63;4165452;28;20446;-76
2022/12/11 01:02:10;;;;;;;41.33;25.83;;;;;;;0.20;72.53;100196.63;4164186;28;20052;-76
2022/12/11 01:04:12;;;;;;;41.58;25.52;;;;;;;0.18;71.86;100194.00;4163762;28;20511;-76
2022/12/11 01:06:17;;;;;;;35.88;23.25;;;;;;;0.19;72.73;100197.41;4180660;28;20041;-77
2022/12/11 01:08:20;;;;;;;38.50;25.30;;;;;;;0.14;72.44;100202.28;4165370;28;20091;-77
2022/12/11 01:10:24;;;;;;;38.55;25.33;;;;;;;0.12;72.44;100194.56;4165390;28;20045;-76
2022/12/11 01:12:27;;;;;;;37.67;24.40;;;;;;;0.11;72.21;100200.44;4165324;28;20048;-77
2022/12/11 01:14:30;;;;;;;35.38;23.52;;;;;;;0.09;72.67;100198.59;4164887;28;20514;-76
2022/12/11 01:16:33;;;;;;;36.00;22.52;;;;;;;0.08;72.17;100187.53;4164252;28;20447;-77
2022/12/11 01:18:36;;;;;;;38.92;23.00;;;;;;;0.09;72.46;100193.50;4164019;28;20045;-77
2022/12/11 01:20:41;;;;;;;36.05;23.23;;;;;;;0.10;72.40;100187.59;4163978;28;20045;-77
2022/12/11 01:22:44;;;;;;;38.38;24.33;;;;;;;0.06;72.23;100195.91;4163921;28;20265;-76
2022/12/11 01:24:47;;;;;;;42.63;26.38;;;;;;;0.01;72.59;100194.78;4164718;28;20044;-77
2022/12/11 01:26:51;;;;;;;38.53;26.13;;;;;;;0.06;72.00;100198.44;4163934;28;20046;-77
2022/12/11 01:28:54;;;;;;;36.92;24.15;;;;;;;0.09;72.72;100193.50;4163788;28;20049;-77
2022/12/11 01:30:56;;;;;;;40.88;25.15;;;;;;;0.12;72.50;100197.09;4164920;28;20448;-77
2022/12/11 01:33:00;;;;;;;40.88;26.25;;;;;;;0.06;72.05;100184.03;4163593;28;20140;-77
2022/12/11 01:35:03;;;;;;;39.63;26.83;;;;;;;0.25;72.46;100197.72;4164081;28;20034;-77
2022/12/11 01:37:06;;;;;;;43.88;28.25;;;;;;;0.33;71.86;100210.09;4164521;28;20095;-77
2022/12/11 01:39:09;;;;;;;40.63;26.95;;;;;;;0.23;71.66;100197.66;4163692;28;20049;-77
2022/12/11 01:41:12;;;;;;;41.15;24.95;;;;;;;0.21;71.94;100186.47;4164869;28;20499;-77
2022/12/11 01:43:16;;;;;;;39.55;24.40;;;;;;;0.27;72.17;100194.44;4163307;28;20041;-77
2022/12/11 01:45:32;;;;;;;39.08;25.77;;;;;;;0.28;72.35;100196.22;4179879;28;20048;-77
2022/12/11 01:47:35;;;;;;;41.72;28.00;;;;;;;0.41;71.86;100197.72;4164779;28;20037;-77
2022/12/11 01:49:40;;;;;;;44.63;28.70;;;;;;;0.48;71.44;100193.78;4164692;28;20107;-77
2022/12/11 01:51:49;;;;;;;42.35;27.00;;;;;;;0.53;71.20;100189.78;4163510;28;20134;-77
2022/12/11 01:53:55;;;;;;;37.78;25.13;;;;;;;0.39;71.38;100198.44;4179605;28;20037;-76
2022/12/11 01:55:59;;;;;;;40.67;27.25;;;;;;;0.30;71.08;100184.38;4164658;28;20040;-77
2022/12/11 01:58:02;;;;;;;41.38;26.33;;;;;;;0.23;71.36;100169.53;4164579;28;20064;-77
2022/12/11 02:00:09;;;;;;;37.85;23.25;;;;;;;0.20;72.04;100174.50;4164459;28;20033;-77
2022/12/11 02:02:19;;;;;;;48.13;26.83;;;;;;;0.46;70.75;100201.38;4164597;28;20038;-77
2022/12/11 02:04:23;;;;;;;46.65;28.58;;;;;;;0.46;70.36;100210.75;4164137;28;20134;-77
2022/12/11 02:06:31;;;;;;;37.33;24.50;;;;;;;0.20;70.48;100217.94;4164498;28;20042;-77
2022/12/11 02:08:34;;;;;;;42.25;26.20;;;;;;;0.07;70.96;100216.41;4164516;28;20124;-77
2022/12/11 02:10:48;;;;;;;41.28;26.33;;;;;;;0.06;71.87;100226.56;4163314;28;20462;-77
2022/12/11 02:12:57;;;;;;;39.25;25.15;;;;;;;0.01;71.26;100228.03;4164421;28;20048;-77
2022/12/11 02:15:12;;;;;;;39.50;24.52;;;;;;;0.03;72.22;100223.84;4164060;28;20076;-77
2022/12/11 02:17:19;;;;;;;41.03;25.95;;;;;;;0.02;71.91;100217.88;4164411;28;20099;-77
2022/12/11 02:19:38;;;;;;;37.83;24.05;;;;;;;0.06;72.41;100229.13;4164315;28;20042;-77
2022/12/11 02:21:47;;;;;;;38.67;25.05;;;;;;;-0.11;72.09;100231.66;4164312;28;20457;-76
2022/12/11 02:24:07;;;;;;;43.53;27.42;;;;;;;-0.14;72.16;100221.28;4163926;28;20045;-77
2022/12/11 02:26:21;;;;;;;39.97;25.60;;;;;;;-0.11;72.78;100224.00;4164161;28;20545;-77
2022/12/11 02:28:31;;;;;;;44.65;26.65;;;;;;;-0.08;72.29;100216.50;4163145;28;20585;-77
2022/12/11 02:30:37;;;;;;;41.25;25.25;;;;;;;-0.06;72.03;100224.25;4162955;28;20051;-77
2022/12/11 02:32:47;;;;;;;36.65;24.90;;;;;;;-0.07;71.75;100218.28;4163002;28;20435;-77
2022/12/11 02:34:59;;;;;;;42.53;25.65;;;;;;;-0.07;72.04;100212.28;4163913;28;20100;-76
2022/12/11 02:37:06;;;;;;;40.20;26.88;;;;;;;-0.08;71.73;100205.41;4164155;28;20111;-77
2022/12/11 02:39:12;;;;;;;39.50;25.02;;;;;;;0.04;71.38;100210.28;4162839;28;20045;-77
2022/12/11 02:41:15;;;;;;;41.33;27.17;;;;;;;0.01;71.24;100215.25;4164115;28;20388;-77
2022/12/11 02:43:20;;;;;;;39.35;27.20;;;;;;;-0.04;71.88;100210.75;4163777;28;20491;-77
2022/12/11 02:45:25;;;;;;;34.60;22.27;;;;;;;-0.07;71.61;100202.94;4162670;28;20131;-77
2022/12/11 02:47:32;;;;;;;38.72;25.45;;;;;;;-0.07;72.17;100208.03;4167428;28;20056;-76
2022/12/11 02:49:35;;;;;;;39.85;26.80;;;;;;;-0.07;72.35;100204.63;4169519;28;20041;-77
2022/12/11 02:51:40;;;;;;;37.38;24.92;;;;;;;-0.05;72.12;100209.00;4168248;28;20045;-77
2022/12/11 02:53:45;;;;;;;;;;;;;;;-0.12;72.17;100208.59;4169611;28;20455;-77
2022/12/11 02:55:52;;;;;;;39.20;25.05;;;;;;;-0.09;71.96;100203.66;4169460;28;19924;-77
2022/12/11 02:58:03;;;;;;;32.97;20.88;;;;;;;-0.08;71.87;100197.75;4169534;28;20411;-77
2022/12/11 03:00:08;;;;;;;36.53;23.25;;;;;;;-0.10;72.23;100192.56;4169502;28;20084;-77
2022/12/11 03:02:15;;;;;;;36.90;23.20;;;;;;;-0.15;71.72;100198.22;4169483;28;20053;-77
2022/12/11 03:04:18;;;;;;;39.28;25.85;;;;;;;-0.17;72.20;100205.81;4167955;28;20033;-77
2022/12/11 03:06:26;;;;;;;38.83;24.25;;;;;;;-0.04;72.30;100203.09;4169370;28;20045;-77
2022/12/11 03:08:29;;;;;;;40.45;25.92;;;;;;;0.06;71.71;100203.56;4169507;28;20106;-77
2022/12/11 03:10:32;;;;;;;39.80;25.38;;;;;;;0.09;71.72;100202.06;4169380;28;20033;-77
2022/12/11 03:12:38;;;;;;;40.97;25.63;;;;;;;0.02;70.94;100199.13;4169300;28;20041;-77
2022/12/11 03:14:43;;;;;;;38.35;24.70;;;;;;;0.07;71.05;100200.22;4169013;28;20041;-77
2022/12/11 03:16:56;;;;;;;37.92;24.25;;;;;;;0.08;70.59;100202.00;4168162;28;20091;-77
2022/12/11 03:19:10;;;;;;;38.95;25.67;;;;;;;-0.01;71.00;100213.47;4169289;28;20041;-77
2022/12/11 03:21:20;;;;;;;41.35;24.17;;;;;;;-0.07;71.18;100205.50;4169317;28;20042;-77
2022/12/11 03:23:28;;;;;;;35.25;22.30;;;;;;;-0.10;71.12;100213.00;4167775;28;20051;-77
2022/12/11 03:25:36;;;;;;;39.85;24.92;;;;;;;-0.09;71.36;100204.53;4169170;28;20060;-77
2022/12/11 03:27:44;;;;;;;38.17;24.70;;;;;;;-0.06;71.55;100199.59;4168066;28;20470;-77
2022/12/11 03:29:53;;;;;;;38.00;24.35;;;;;;;-0.07;71.60;100207.19;4169240;28;20045;-77
2022/12/11 03:32:02;;;;;;;37.00;23.77;;;;;;;-0.17;72.06;100202.38;4167941;28;20527;-77
2022/12/11 03:34:12;;;;;;;38.10;24.08;;;;;;;-0.11;72.20;100210.38;4168854;28;20138;-77
2022/12/11 03:36:20;;;;;;;38.83;24.98;;;;;;;-0.10;72.45;100202.78;4169241;28;20037;-77
2022/12/11 03:38:28;;;;;;;34.72;22.38;;;;;;;-0.07;72.20;100197.81;4169134;28;20069;-77
2022/12/11 03:40:34;;;;;;;37.40;25.27;;;;;;;-0.06;71.85;100207.25;4169199;28;20406;-77
2022/12/11 03:42:39;;;;;;;42.47;25.98;;;;;;;0.01;71.95;100220.34;4167854;28;20499;-77
2022/12/11 03:44:44;;;;;;;;;;;;;;;0.11;71.91;100220.03;4169227;28;20461;-77
2022/12/11 03:46:48;;;;;;;37.55;23.83;;;;;;;0.18;71.64;100224.66;4167873;28;19925;-77
2022/12/11 03:48:53;;;;;;;42.17;25.90;;;;;;;0.14;71.25;100227.84;4169500;28;20395;-77
2022/12/11 03:50:59;;;;;;;44.85;25.98;;;;;;;0.11;71.28;100220.03;4168942;28;20918;-77
2022/12/11 03:53:04;;;;;;;33.25;22.95;;;;;;;0.10;71.21;100215.72;4169115;28;20128;-77
2022/12/11 03:55:09;;;;;;;42.50;22.80;;;;;;;0.14;71.83;100212.53;4168826;28;20043;-77
2022/12/11 03:57:15;;;;;;;39.08;24.92;;;;;;;0.11;72.27;100212.38;4168978;28;20045;-77
2022/12/11 03:59:18;;;;;;;36.75;24.58;;;;;;;0.13;72.29;100220.97;4165981;28;20444;-77
2022/12/11 04:01:21;;;;;;;36.20;24.33;;;;;;;0.15;71.68;100216.84;4166409;28;20466;-77
2022/12/11 04:03:24;;;;;;;41.42;24.15;;;;;;;0.12;72.61;100212.44;4164762;28;20053;-77
2022/12/11 04:05:27;;;;;;;34.70;22.58;;;;;;;0.17;72.61;100213.53;4165014;28;20061;-77
2022/12/11 04:07:31;;;;;;;41.55;23.52;;;;;;;0.22;72.11;100211.25;4165087;28;20042;-76
2022/12/11 04:09:35;;;;;;;37.38;24.58;;;;;;;0.25;72.20;100208.84;4166252;28;20124;-77
2022/12/11 04:11:38;;;;;;;37.85;24.48;;;;;;;0.21;72.85;100213.72;4166254;28;20288;-77
2022/12/11 04:13:41;;;;;;;37.50;23.70;;;;;;;0.22;72.54;100203.59;4165837;28;20052;-77
2022/12/11 04:15:43;;;;;;;40.08;26.55;;;;;;;0.23;72.93;100207.88;4164886;28;20049;-77
2022/12/11 04:24:49;;;;;;;42.58;26.23;;;;;;;0.26;73.41;100205.47;4165745;28;20041;-77
2022/12/11 04:26:52;;;;;;;40.40;26.73;;;;;;;0.23;72.80;100202.75;4164781;28;20048;-77
2022/12/11 04:28:54;;;;;;;40.28;27.38;;;;;;;0.25;72.53;100206.28;4165953;28;20091;-77
2022/12/11 04:30:57;;;;;;;44.13;26.83;;;;;;;0.24;72.99;100207.09;4165997;28;20041;-77
2022/12/11 04:33:00;;;;;;;43.15;26.77;;;;;;;0.23;72.76;100210.44;4165807;28;20030;-77
2022/12/11 04:35:04;;;;;;;46.45;27.33;;;;;;;0.27;73.38;100203.81;4164416;28;20049;-77
2022/12/11 04:37:07;;;;;;;42.30;28.77;;;;;;;0.27;72.96;100204.69;4165909;28;20038;-77
2022/12/11 04:39:10;;;;;;;38.30;26.08;;;;;;;0.26;72.69;100205.47;4165851;28;20102;-77
2022/12/11 04:41:16;;;;;;;36.63;24.35;;;;;;;0.24;72.79;100201.09;4165751;28;20056;-77
2022/12/11 04:43:18;;;;;;;38.85;24.67;;;;;;;0.22;73.44;100203.59;4165672;28;20468;-77
2022/12/11 04:45:21;;;;;;;38.03;24.73;;;;;;;0.26;73.34;100205.47;4164393;28;20072;-76
2022/12/11 04:47:24;;;;;;;35.22;23.95;;;;;;;0.24;73.32;100209.63;4164471;28;20042;-77
2022/12/11 04:49:27;;;;;;;42.75;26.67;;;;;;;0.26;72.83;100202.03;4165743;28;20041;-77
2022/12/11 04:51:30;;;;;;;40.05;26.30;;;;;;;0.22;72.96;100203.59;4165591;28;20041;-76
2022/12/11 04:53:33;;;;;;;39.97;25.50;;;;;;;0.18;73.52;100199.09;4165280;28;20038;-76
2022/12/11 04:55:36;;;;;;;38.45;24.73;;;;;;;0.25;73.15;100198.63;4165494;28;20435;-77
2022/12/11 04:57:40;;;;;;;39.83;25.17;;;;;;;0.34;72.95;100191.41;4165513;28;20034;-78
2022/12/11 04:59:43;;;;;;;37.85;23.50;;;;;;;0.26;72.58;100197.81;4165573;28;20529;-78
2022/12/11 05:01:46;;;;;;;37.33;23.60;;;;;;;0.23;73.38;100195.09;4165417;28;20530;-77
2022/12/11 05:03:49;;;;;;;34.53;22.83;;;;;;;0.24;73.50;100189.19;4165091;28;20519;-78
2022/12/11 05:05:53;;;;;;;39.25;24.08;;;;;;;0.19;73.49;100192.31;4165396;28;20049;-78
2022/12/11 05:07:57;;;;;;;36.08;23.55;;;;;;;0.23;73.15;100195.09;4164174;28;20045;-78
2022/12/11 05:09:59;;;;;;;38.72;25.00;;;;;;;0.20;72.71;100186.41;4163912;28;20049;-78
2022/12/11 05:12:03;;;;;;;36.35;23.65;;;;;;;0.24;72.69;100186.63;4164041;28;20073;-78
2022/12/11 05:14:07;;;;;;;30.45;20.10;;;;;;;0.26;73.05;100190.13;4163768;28;20128;-77
2022/12/11 05:16:12;;;;;;;31.67;22.00;;;;;;;0.21;72.90;100183.91;4165322;28;20065;-77
2022/12/11 05:18:15;;;;;;;32.85;20.60;;;;;;;0.22;73.47;100188.25;4165266;28;20111;-78
2022/12/11 05:20:18;;;;;;;35.92;21.67;;;;;;;0.17;73.28;100189.66;4165217;28;20541;-77
2022/12/11 05:22:21;;;;;;;26.50;18.70;;;;;;;0.16;73.34;100187.91;4165196;28;20402;-77
2022/12/11 05:24:24;;;;;;;26.92;18.10;;;;;;;0.13;73.36;100180.09;4164793;28;20041;-77
2022/12/11 05:26:27;;;;;;;29.63;19.55;;;;;;;0.05;73.44;100176.28;4165040;28;20480;-78
2022/12/11 05:28:32;;;;;;;27.67;18.75;;;;;;;0.04;73.33;100184.72;4165041;28;20510;-77
2022/12/11 05:30:37;;;;;;;31.50;19.73;;;;;;;0.02;72.98;100179.53;4165105;28;20048;-77
2022/12/11 05:32:39;;;;;;;29.17;18.10;;;;;;;0.05;72.41;100182.25;4164937;28;20033;-78
2022/12/11 05:34:42;;;;;;;31.10;18.75;;;;;;;-0.04;73.03;100190.31;4164625;28;20499;-77
2022/12/11 05:36:46;;;;;;;27.02;16.67;;;;;;;-0.05;72.28;100180.88;4165025;28;20033;-78
2022/12/11 05:38:49;;;;;;;26.38;17.92;;;;;;;-0.08;72.41;100185.84;4164906;28;20052;-78
2022/12/11 05:40:58;;;;;;;27.63;16.38;;;;;;;-0.13;72.73;100178.72;4163567;28;20115;-78
2022/12/11 05:43:01;;;;;;;26.20;17.25;;;;;;;-0.20;72.92;100180.09;4164838;28;20041;-78
2022/12/11 05:45:05;;;;;;;24.90;16.75;;;;;;;-0.26;73.33;100184.91;4163206;28;20593;-76
2022/12/11 05:47:09;;;;;;;25.77;17.48;;;;;;;-0.28;73.68;100183.91;4164685;28;20034;-76
2022/12/11 05:49:12;;;;;;;27.02;17.77;;;;;;;-0.28;73.21;100181.34;4164783;28;20041;-75
2022/12/11 05:51:16;;;;;;;26.25;16.30;;;;;;;-0.25;73.53;100177.31;4163431;28;20041;-76
2022/12/11 05:53:18;;;;;;;26.75;17.85;;;;;;;-0.32;72.74;100185.44;4164318;28;20038;-76
2022/12/11 05:55:21;;;;;;;27.02;18.02;;;;;;;-0.28;73.14;100186.47;4164550;28;20037;-76
2022/12/11 05:57:24;;;;;;;27.83;18.13;;;;;;;-0.17;73.70;100175.16;4164833;28;20059;-76
2022/12/11 05:59:27;;;;;;;33.78;19.20;;;;;;;-0.06;73.24;100176.59;4164576;28;20042;-77
2022/12/11 06:01:33;;;;;;;26.23;17.00;;;;;;;-0.07;72.46;100179.94;4164621;28;20041;-77
2022/12/11 06:03:37;;;;;;;28.45;17.10;;;;;;;-0.16;73.03;100176.91;4164228;28;20069;-77
2022/12/11 06:05:42;;;;;;;26.55;17.65;;;;;;;-0.15;73.40;100181.22;4164526;28;20051;-76
2022/12/11 06:07:44;;;;;;;31.75;19.88;;;;;;;-0.12;72.85;100177.94;4163144;28;20052;-77
2022/12/11 06:09:47;;;;;;;26.98;17.98;;;;;;;-0.11;73.62;100179.72;4164419;28;20037;-77
2022/12/11 06:11:50;;;;;;;30.23;19.50;;;;;;;-0.08;73.52;100175.63;4163202;28;20052;-77
2022/12/11 06:13:53;;;;;;;30.27;17.98;;;;;;;-0.16;72.55;100176.91;4164069;28;20068;-76
2022/12/11 06:16:01;;;;;;;27.92;16.83;;;;;;;-0.25;72.76;100174.75;4164451;28;20429;-76
2022/12/11 06:18:04;;;;;;;26.05;17.58;;;;;;;-0.38;72.55;100170.66;4164410;28;20029;-76
2022/12/11 06:20:09;;;;;;;29.23;18.77;;;;;;;-0.36;73.20;100170.75;4164570;28;20038;-76
2022/12/11 06:22:11;;;;;;;;;;;;;;;-0.43;72.58;100164.41;4164228;28;20045;-76
2022/12/11 06:24:14;;;;;;;26.45;17.23;;;;;;;-0.52;72.87;100161.38;4163922;28;19979;-76
2022/12/11 06:26:18;;;;;;;27.05;17.48;;;;;;;-0.54;73.22;100162.94;4164222;28;20037;-76
2022/12/11 06:28:21;;;;;;;25.63;17.43;;;;;;;-0.54;74.05;100163.84;4164137;28;20037;-76
2022/12/11 06:30:24;;;;;;;25.83;17.27;;;;;;;-0.57;72.98;100162.78;4164218;28;20551;-76
2022/12/11 06:32:41;;;;;;;29.92;17.23;;;;;;;-0.61;73.79;100150.69;4164037;28;20091;-77
2022/12/11 06:34:44;;;;;;;29.38;18.90;;;;;;;-0.58;73.08;100156.81;4162608;28;20470;-77
2022/12/11 06:36:48;;;;;;;27.00;18.13;;;;;;;-0.50;73.16;100164.00;4164147;28;20073;-78
2022/12/11 06:38:51;;;;;;;27.13;16.33;;;;;;;-0.49;72.80;100155.56;4164084;28;20565;-78
2022/12/11 06:40:55;;;;;;;26.42;17.65;;;;;;;-0.48;73.53;100158.22;4162944;28;20048;-78
2022/12/11 06:42:58;;;;;;;26.92;17.02;;;;;;;-0.52;73.76;100160.50;4164076;28;20049;-78
2022/12/11 06:45:02;;;;;;;28.08;17.80;;;;;;;-0.61;73.75;100156.66;4163792;28;20049;-78
2022/12/11 06:47:05;;;;;;;28.65;18.05;;;;;;;-0.55;73.24;100163.78;4162851;28;20132;-77
2022/12/11 06:49:08;;;;;;;24.55;16.60;;;;;;;-0.55;72.83;100156.97;4164090;28;20491;-78
2022/12/11 06:51:13;;;;;;;30.67;17.77;;;;;;;-0.46;73.00;100155.72;4164062;28;20443;-78
2022/12/11 06:53:17;;;;;;;28.90;18.25;;;;;;;-0.49;72.83;100153.00;4163712;28;20041;-78
2022/12/11 06:55:20;;;;;;;27.58;17.85;;;;;;;-0.52;72.50;100153.72;4164189;28;20380;-78
2022/12/11 06:57:23;;;;;;;27.73;17.80;;;;;;;-0.59;73.79;100149.09;4163987;28;20426;-78
2022/12/11 06:59:26;;;;;;;28.38;18.80;;;;;;;-0.58;73.13;100155.97;4162765;28;20092;-78
2022/12/11 07:01:29;;;;;;;31.10;19.55;;;;;;;-0.66;73.13;100162.31;4163980;28;20049;-78
2022/12/11 07:03:32;;;;;;;28.67;17.92;;;;;;;-0.63;72.96;100159.91;4163560;28;20061;-78
2022/12/11 07:05:35;;;;;;;27.52;18.83;;;;;;;-0.58;73.54;100156.81;4162706;28;20034;-78
2022/12/11 07:07:38;;;;;;;31.08;19.45;;;;;;;-0.54;73.70;100155.28;4178952;28;20045;-78
2022/12/11 07:09:42;;;;;;;27.90;17.38;;;;;;;-0.56;73.08;100159.47;4162703;28;20041;-78
2022/12/11 07:11:45;;;;;;;32.33;20.00;;;;;;;-0.54;73.67;100157.84;4163896;28;20046;-78
2022/12/11 07:13:48;;;;;;;29.92;19.52;;;;;;;-0.49;72.88;100155.56;4145950;28;20050;-78
2022/12/11 07:15:51;;;;;;;30.48;19.30;;;;;;;-0.48;72.73;100160.75;4162713;28;20505;-79
2022/12/11 07:17:54;;;;;;;32.55;20.88;;;;;;;-0.46;73.40;100163.38;4163861;28;20037;-78
2022/12/11 07:19:57;;;;;;;33.13;20.48;;;;;;;-0.40;72.83;100164.56;4163777;28;20038;-78
2022/12/11 07:22:00;;;;;;;30.25;19.35;;;;;;;-0.42;73.12;100170.44;4162513;28;20589;-78
2022/12/11 07:24:03;;;;;;;30.20;20.02;;;;;;;-0.43;72.60;100172.06;4163389;28;20076;-78
2022/12/11 07:26:09;;;;;;;34.30;21.83;;;;;;;-0.39;72.30;100170.59;4163971;28;20103;-78
2022/12/11 07:28:12;;;;;;;30.65;20.23;;;;;;;-0.52;73.14;100175.84;4163753;28;20099;-78
2022/12/11 07:30:18;;;;;;;33.58;21.48;;;;;;;-0.71;73.23;100175.69;4163784;28;20155;-79
2022/12/11 07:32:21;;;;;;;30.25;18.70;;;;;;;-0.72;73.40;100168.81;4163633;28;20499;-79
2022/12/11 07:34:24;;;;;;;31.75;18.83;;;;;;;-0.72;73.60;100173.94;4164823;28;20132;-79
2022/12/11 07:36:29;;;;;;;29.20;19.30;;;;;;;-0.60;73.17;100178.84;4165467;28;20045;-79
2022/12/11 07:38:31;;;;;;;33.25;20.33;;;;;;;-0.54;73.55;100181.72;4165536;28;20033;-78
2022/12/11 07:40:34;;;;;;;34.20;20.05;;;;;;;-0.47;72.31;100180.38;4165469;28;20083;-79
2022/12/11 07:42:39;;;;;;;32.25;20.23;;;;;;;-0.46;72.49;100182.13;4166675;28;20035;-78
2022/12/11 07:44:47;;;;;;;34.08;20.05;;;;;;;-0.47;72.17;100174.38;4166320;28;20121;-79
2022/12/11 07:46:50;;;;;;;31.02;19.42;;;;;;;-0.50;72.43;100177.66;4165375;28;20045;-78
2022/12/11 07:48:54;;;;;;;33.58;20.55;;;;;;;-0.52;72.28;100176.69;4166501;28;20475;-79
2022/12/11 07:51:06;;;;;;;31.20;19.40;;;;;;;-0.50;73.06;100177.66;4166574;28;20103;-79
2022/12/11 07:53:09;;;;;;;31.55;18.92;;;;;;;-0.49;73.36;100181.97;4166440;28;20396;-79
2022/12/11 07:55:12;;;;;;;33.08;19.48;;;;;;;-0.43;72.83;100179.75;4165162;28;20151;-77
2022/12/11 07:57:15;;;;;;;32.67;19.85;;;;;;;-0.21;71.80;100191.97;4181896;28;20056;-79
2022/12/11 07:59:19;;;;;;;35.05;21.55;;;;;;;-0.22;71.19;100189.34;4166427;28;20084;-80
2022/12/11 08:01:25;;;;;;;33.15;21.60;;;;;;;-0.30;71.38;100183.84;4166461;28;20045;-77
2022/12/11 08:03:28;;;;;;;35.17;22.45;;;;;;;-0.41;71.88;100187.47;4166232;28;20357;-77
2022/12/11 08:05:30;;;;;;;33.53;21.60;;;;;;;-0.35;72.40;100182.72;4165034;28;20107;-78
2022/12/11 08:07:34;;;;;;;35.58;22.08;;;;;;;-0.32;71.86;100182.88;4166324;28;20041;-78
2022/12/11 08:09:37;;;;;;;36.70;22.08;;;;;;;-0.39;71.64;100181.66;4165039;28;20076;-78
2022/12/11 08:11:40;;;;;;;33.60;21.77;;;;;;;-0.42;71.76;100178.09;4166244;28;20045;-78
2022/12/11 08:13:43;;;;;;;42.88;24.02;;;;;;;-0.51;73.19;100177.56;4165940;28;20095;-78
2022/12/11 08:15:47;;;;;;;39.83;24.00;;;;;;;-0.55;73.41;100179.09;4166191;28;20088;-78
2022/12/11 08:17:50;;;;;;;31.17;19.98;;;;;;;-0.45;72.17;100183.91;4166289;28;20045;-78
2022/12/11 08:19:53;;;;;;;34.58;21.23;;;;;;;-0.43;72.75;100184.84;4166167;28;20096;-78
2022/12/11 08:21:56;;;;;;;34.60;21.40;;;;;;;-0.41;72.31;100184.94;4166141;28;20041;-78
2022/12/11 08:23:59;;;;;;;39.42;23.20;;;;;;;-0.43;72.77;100177.19;4164465;28;20100;-78
2022/12/11 08:26:02;;;;;;;34.90;22.48;;;;;;;-0.41;73.27;100175.63;4164886;28;20041;-77
2022/12/11 08:28:05;;;;;;;35.42;21.27;;;;;;;-0.19;73.30;100177.63;4165901;28;20038;-77
2022/12/11 08:30:09;;;;;;;46.63;26.08;;;;;;;-0.03;71.71;100175.84;4166026;28;20045;-78
2022/12/11 08:32:15;;;;;;;41.05;25.13;;;;;;;-0.20;71.81;100169.88;4164648;28;20123;-78
2022/12/11 08:34:19;;;;;;;38.95;23.52;;;;;;;-0.27;72.95;100178.00;4165779;28;20053;-78
2022/12/11 08:36:23;;;;;;;37.25;23.02;;;;;;;-0.19;72.44;100166.50;4164610;28;20118;-78
2022/12/11 08:38:26;;;;;;;40.60;24.33;;;;;;;-0.22;72.55;100177.47;4165850;28;20095;-78
2022/12/11 08:40:28;;;;;;;41.33;23.88;;;;;;;-0.23;73.28;100180.81;4165896;28;20076;-78
2022/12/11 08:42:32;;;;;;;41.00;24.92;;;;;;;-0.18;73.07;100188.72;4166036;28;20034;-77
2022/12/11 08:44:35;;;;;;;42.15;25.67;;;;;;;-0.07;73.21;100187.59;4164916;28;20042;-77
2022/12/11 08:46:38;;;;;;;45.05;25.17;;;;;;;-0.14;72.52;100193.19;4165769;28;20108;-77
2022/12/11 08:48:43;;;;;;;38.88;23.23;;;;;;;-0.05;72.93;100188.56;4165609;28;20492;-77
2022/12/11 08:50:46;;;;;;;41.90;24.45;;;;;;;-0.09;72.88;100193.44;4164453;28;20037;-77
2022/12/11 08:52:49;;;;;;;47.50;26.95;;;;;;;-0.10;73.22;100187.44;4165661;28;20048;-77
2022/12/11 08:54:52;;;;;;;40.95;24.17;;;;;;;0.06;72.70;100178.91;4165254;28;20041;-77
2022/12/11 08:56:55;;;;;;;40.13;24.55;;;;;;;-0.06;73.07;100189.38;4165547;28;20038;-76
2022/12/11 08:59:00;;;;;;;44.03;26.98;;;;;;;-0.07;72.44;100190.16;4165489;28;20034;-77
2022/12/11 09:01:06;;;;;;;41.80;24.85;;;;;;;-0.01;72.68;100185.38;4147899;28;20057;-78
2022/12/11 09:03:09;;;;;;;46.45;26.35;;;;;;;-0.04;73.12;100187.75;4164104;28;20172;-77
2022/12/11 09:05:16;;;;;;;40.63;25.02;;;;;;;0.08;72.82;100173.88;4165127;28;20496;-77
2022/12/11 09:07:19;;;;;;;40.17;25.08;;;;;;;0.13;72.65;100174.97;4165381;28;20072;-77
2022/12/11 09:09:22;;;;;;;39.90;24.67;;;;;;;0.16;72.85;100176.03;4165307;28;20479;-77
2022/12/11 09:11:27;;;;;;;43.58;25.17;;;;;;;0.26;72.16;100174.78;4165393;28;20492;-77
2022/12/11 09:13:29;;;;;;;41.58;24.77;;;;;;;0.09;72.52;100173.94;4163752;28;20087;-77
2022/12/11 09:15:32;;;;;;;41.13;24.80;;;;;;;0.10;72.46;100167.16;4165518;28;20034;-77
2022/12/11 09:17:35;;;;;;;42.03;24.20;;;;;;;0.16;72.86;100175.13;4165157;28;20045;-77
2022/12/11 09:19:38;;;;;;;48.40;27.48;;;;;;;0.23;72.35;100177.19;4165197;28;20060;-77
2022/12/11 09:21:43;;;;;;;47.85;27.02;;;;;;;0.38;72.14;100181.34;4163981;28;20103;-77
2022/12/11 09:23:47;;;;;;;40.88;25.63;;;;;;;0.31;72.40;100170.81;4163576;28;20384;-77
2022/12/11 09:25:50;;;;;;;44.28;24.35;;;;;;;0.31;72.69;100183.59;4164935;28;20483;-77
2022/12/11 09:27:52;;;;;;;41.38;24.02;;;;;;;0.22;72.83;100178.03;4165047;28;20124;-77
2022/12/11 09:29:55;;;;;;;43.75;25.58;;;;;;;0.22;72.41;100178.03;4163570;28;20049;-77
2022/12/11 09:31:58;;;;;;;41.40;23.13;;;;;;;0.29;72.66;100176.63;4163738;28;20428;-77
2022/12/11 09:34:04;;;;;;;43.58;24.88;;;;;;;0.31;72.42;100181.03;4164554;28;20068;-77
2022/12/11 09:36:07;;;;;;;44.92;25.08;;;;;;;0.18;73.00;100178.66;4164886;28;20045;-77